sensor_id;sensor_type;location;lat;lon;timestamp;temperature;humidity
6078;DHT22;3067;49.470;10.394;2022-09-27T04:41:18;9.80;99.90
6078;DHT22;3067;49.470;10.394;2022-09-27T04:43:46;9.90;99.90
6078;DHT22;3067;49.470;10.394;2022-09-27T04:46:15;9.70;99.90
6078;DHT22;3067;49.470;10.394;2022-09-27T04:48:42;9.90;99.90
6078;DHT22;3067;49.470;10.394;2022-09-27T04:51:13;9.90;99.90
6078;DHT22;3067;49.470;10.394;2022-09-27T04:53:42;9.90;99.90
6078;DHT22;3067;49.470;10.394;2022-09-27T04:56:09;9.90;99.90
6078;DHT22;3067;49.470;10.394;2022-09-27T04:58:37;10.00;99.90
6078;DHT22;3067;49.470;10.394;2022-09-27T05:01:05;10.00;99.90
6078;DHT22;3067;49.470;10.394;2022-09-27T05:03:33;10.00;99.90
6078;DHT22;3067;49.470;10.394;2022-09-27T05:06:01;9.90;99.90
6078;DHT22;3067;49.470;10.394;2022-09-27T05:08:28;10.00;99.90
6078;DHT22;3067;49.470;10.394;2022-09-27T05:10:55;9.90;99.90
6078;DHT22;3067;49.470;10.394;2022-09-27T05:13:23;9.90;99.90
6078;DHT22;3067;49.470;10.394;2022-09-27T05:15:50;9.90;99.90
6078;DHT22;3067;49.470;10.394;2022-09-27T05:18:17;10.00;99.90
6078;DHT22;3067;49.470;10.394;2022-09-27T05:20:46;10.00;99.90
6078;DHT22;3067;49.470;10.394;2022-09-27T05:23:13;9.90;99.90
6078;DHT22;3067;49.470;10.394;2022-09-27T05:25:40;9.90;99.90
6078;DHT22;3067;49.470;10.394;2022-09-27T05:28:08;9.90;99.90
6078;DHT22;3067;49.470;10.394;2022-09-27T05:30:35;9.80;99.90
6078;DHT22;3067;49.470;10.394;2022-09-27T05:33:02;9.90;99.90
6078;DHT22;3067;49.470;10.394;2022-09-27T05:35:30;9.80;99.90
6078;DHT22;3067;49.470;10.394;2022-09-27T05:38:00;9.80;99.90
6078;DHT22;3067;49.470;10.394;2022-09-27T05:40:27;9.90;99.90
6078;DHT22;3067;49.470;10.394;2022-09-27T05:42:55;9.90;99.90
6078;DHT22;3067;49.470;10.394;2022-09-27T05:45:23;9.90;99.90
6078;DHT22;3067;49.470;10.394;2022-09-27T05:47:55;9.90;99.90
6078;DHT22;3067;49.470;10.394;2022-09-27T05:50:23;9.90;99.90
6078;DHT22;3067;49.470;10.394;2022-09-27T05:52:50;9.90;99.90
6078;DHT22;3067;49.470;10.394;2022-09-27T05:55:19;9.80;99.90
6078;DHT22;3067;49.470;10.394;2022-09-27T05:57:54;9.80;99.90
6078;DHT22;3067;49.470;10.394;2022-09-27T06:00:22;9.90;99.90
6078;DHT22;3067;49.470;10.394;2022-09-27T06:02:54;9.80;99.90
6078;DHT22;3067;49.470;10.394;2022-09-27T06:05:25;9.80;99.90
6078;DHT22;3067;49.470;10.394;2022-09-27T06:07:57;9.80;99.90
6078;DHT22;3067;49.470;10.394;2022-09-27T06:10:27;9.90;99.90
6078;DHT22;3067;49.470;10.394;2022-09-27T06:12:58;9.90;99.90
6078;DHT22;3067;49.470;10.394;2022-09-27T06:15:27;9.90;99.90
6078;DHT22;3067;49.470;10.394;2022-09-27T06:17:54;9.90;99.90
6078;DHT22;3067;49.470;10.394;2022-09-27T06:20:22;9.80;99.90
6078;DHT22;3067;49.470;10.394;2022-09-27T06:22:50;9.80;99.90
6078;DHT22;3067;49.470;10.394;2022-09-27T06:25:19;9.70;99.90
6078;DHT22;3067;49.470;10.394;2022-09-27T06:27:47;9.60;99.90
6078;DHT22;3067;49.470;10.394;2022-09-27T06:30:14;9.60;99.90
6078;DHT22;3067;49.470;10.394;2022-09-27T06:32:42;9.60;99.90
6078;DHT22;3067;49.470;10.394;2022-09-27T06:35:09;9.50;99.90
6078;DHT22;3067;49.470;10.394;2022-09-27T06:37:36;9.50;99.90
6078;DHT22;3067;49.470;10.394;2022-09-27T06:40:04;9.60;99.90
6078;DHT22;3067;49.470;10.394;2022-09-27T06:42:33;9.70;99.90
6078;DHT22;3067;49.470;10.394;2022-09-27T06:45:02;9.70;99.90
6078;DHT22;3067;49.470;10.394;2022-09-27T06:47:34;9.80;99.90
6078;DHT22;3067;49.470;10.394;2022-09-27T06:50:02;9.80;99.90
6078;DHT22;3067;49.470;10.394;2022-09-27T06:52:31;9.90;99.90
6078;DHT22;3067;49.470;10.394;2022-09-27T06:54:58;10.00;99.90
6078;DHT22;3067;49.470;10.394;2022-09-27T06:57:25;10.10;99.90
6078;DHT22;3067;49.470;10.394;2022-09-27T07:00:12;10.20;99.90
6078;DHT22;3067;49.470;10.394;2022-09-27T07:02:52;10.20;99.90
6078;DHT22;3067;49.470;10.394;2022-09-27T07:05:26;10.20;99.90
6078;DHT22;3067;49.470;10.394;2022-09-27T07:07:53;10.20;99.90
6078;DHT22;3067;49.470;10.394;2022-09-27T07:10:23;8.60;99.90
6078;DHT22;3067;49.470;10.394;2022-09-27T07:12:50;10.20;99.90
6078;DHT22;3067;49.470;10.394;2022-09-27T07:15:19;10.20;99.90
6078;DHT22;3067;49.470;10.394;2022-09-27T07:17:47;10.10;99.90
6078;DHT22;3067;49.470;10.394;2022-09-27T07:20:14;10.00;99.90
6078;DHT22;3067;49.470;10.394;2022-09-27T07:22:41;10.00;99.90
6078;DHT22;3067;49.470;10.394;2022-09-27T07:25:09;10.00;99.90
6078;DHT22;3067;49.470;10.394;2022-09-27T07:27:37;10.00;99.90
6078;DHT22;3067;49.470;10.394;2022-09-27T07:30:06;10.00;99.90
6078;DHT22;3067;49.470;10.394;2022-09-27T07:32:36;10.10;99.90
6078;DHT22;3067;49.470;10.394;2022-09-27T07:35:05;10.10;99.90
6078;DHT22;3067;49.470;10.394;2022-09-27T07:37:33;10.20;99.90
6078;DHT22;3067;49.470;10.394;2022-09-27T07:40:01;10.20;99.90
6078;DHT22;3067;49.470;10.394;2022-09-27T07:42:28;10.30;99.90
6078;DHT22;3067;49.470;10.394;2022-09-27T07:44:55;10.30;99.90
6078;DHT22;3067;49.470;10.394;2022-09-27T07:47:23;10.30;99.90
6078;DHT22;3067;49.470;10.394;2022-09-27T07:49:52;10.40;99.90
6078;DHT22;3067;49.470;10.394;2022-09-27T07:52:21;10.30;99.90
6078;DHT22;3067;49.470;10.394;2022-09-27T07:54:48;10.40;99.90
6078;DHT22;3067;49.470;10.394;2022-09-27T07:57:16;10.60;99.90
6078;DHT22;3067;49.470;10.394;2022-09-27T07:59:43;10.70;99.90
6078;DHT22;3067;49.470;10.394;2022-09-27T08:02:13;10.80;99.90
6078;DHT22;3067;49.470;10.394;2022-09-27T08:04:40;10.90;99.90
6078;DHT22;3067;49.470;10.394;2022-09-27T08:07:10;11.00;99.90
6078;DHT22;3067;49.470;10.394;2022-09-27T08:09:37;11.00;99.90
6078;DHT22;3067;49.470;10.394;2022-09-27T08:12:05;10.90;99.90
6078;DHT22;3067;49.470;10.394;2022-09-27T08:14:33;10.80;99.90
6078;DHT22;3067;49.470;10.394;2022-09-27T08:17:00;10.70;99.90
6078;DHT22;3067;49.470;10.394;2022-09-27T08:19:27;10.60;99.90
6078;DHT22;3067;49.470;10.394;2022-09-27T08:21:54;10.50;99.90
6078;DHT22;3067;49.470;10.394;2022-09-27T08:24:23;10.40;99.90
6078;DHT22;3067;49.470;10.394;2022-09-27T08:26:50;10.40;99.90
6078;DHT22;3067;49.470;10.394;2022-09-27T08:29:18;10.30;99.90
6078;DHT22;3067;49.470;10.394;2022-09-27T08:31:45;10.40;99.90
6078;DHT22;3067;49.470;10.394;2022-09-27T08:34:12;10.40;99.90
6078;DHT22;3067;49.470;10.394;2022-09-27T08:36:42;10.40;99.90
6078;DHT22;3067;49.470;10.394;2022-09-27T08:39:09;10.30;99.90
6078;DHT22;3067;49.470;10.394;2022-09-27T08:41:40;10.40;99.90
6078;DHT22;3067;49.470;10.394;2022-09-27T08:44:15;10.50;99.90
6078;DHT22;3067;49.470;10.394;2022-09-27T08:46:52;10.80;99.90
6078;DHT22;3067;49.470;10.394;2022-09-27T08:49:26;11.10;99.90
6078;DHT22;3067;49.470;10.394;2022-09-27T08:51:57;11.20;99.90
6078;DHT22;3067;49.470;10.394;2022-09-27T08:54:27;11.40;99.90
6078;DHT22;3067;49.470;10.394;2022-09-27T08:57:00;11.40;99.90
6078;DHT22;3067;49.470;10.394;2022-09-27T08:59:33;11.40;99.90
6078;DHT22;3067;49.470;10.394;2022-09-27T09:02:01;11.30;99.90
6078;DHT22;3067;49.470;10.394;2022-09-27T09:04:33;11.20;99.90
6078;DHT22;3067;49.470;10.394;2022-09-27T09:07:07;11.20;99.90
6078;DHT22;3067;49.470;10.394;2022-09-27T09:09:41;11.00;99.90
6078;DHT22;3067;49.470;10.394;2022-09-27T09:12:25;10.90;99.90
6078;DHT22;3067;49.470;10.394;2022-09-27T09:15:26;10.90;99.90
6078;DHT22;3067;49.470;10.394;2022-09-27T09:18:14;10.90;99.90
6078;DHT22;3067;49.470;10.394;2022-09-27T09:20:55;10.90;99.90
6078;DHT22;3067;49.470;10.394;2022-09-27T09:23:44;10.80;99.90
6078;DHT22;3067;49.470;10.394;2022-09-27T09:26:18;10.70;99.90
6078;DHT22;3067;49.470;10.394;2022-09-27T09:29:00;10.80;99.90
6078;DHT22;3067;49.470;10.394;2022-09-27T09:31:36;10.90;99.90
6078;DHT22;3067;49.470;10.394;2022-09-27T09:34:11;11.10;99.90
6078;DHT22;3067;49.470;10.394;2022-09-27T09:36:44;11.30;99.90
6078;DHT22;3067;49.470;10.394;2022-09-27T09:39:15;11.50;99.90
6078;DHT22;3067;49.470;10.394;2022-09-27T09:42:01;11.50;99.90
6078;DHT22;3067;49.470;10.394;2022-09-27T09:44:38;11.50;99.90
6078;DHT22;3067;49.470;10.394;2022-09-27T09:47:23;11.50;99.90
6078;DHT22;3067;49.470;10.394;2022-09-27T09:49:56;11.40;99.90
6078;DHT22;3067;49.470;10.394;2022-09-27T09:52:28;11.40;99.90
6078;DHT22;3067;49.470;10.394;2022-09-27T09:55:04;11.50;99.90
6078;DHT22;3067;49.470;10.394;2022-09-27T09:57:39;11.40;99.90
6078;DHT22;3067;49.470;10.394;2022-09-27T10:00:15;11.40;99.90
6078;DHT22;3067;49.470;10.394;2022-09-27T10:02:44;11.30;99.90
6078;DHT22;3067;49.470;10.394;2022-09-27T10:05:13;11.30;99.90
6078;DHT22;3067;49.470;10.394;2022-09-27T10:07:41;11.30;99.90
6078;DHT22;3067;49.470;10.394;2022-09-27T10:10:12;11.30;99.90
6078;DHT22;3067;49.470;10.394;2022-09-27T10:12:40;11.40;99.90
6078;DHT22;3067;49.470;10.394;2022-09-27T10:15:16;11.40;99.90
6078;DHT22;3067;49.470;10.394;2022-09-27T10:17:46;11.50;99.90
6078;DHT22;3067;49.470;10.394;2022-09-27T10:20:23;11.30;99.90
6078;DHT22;3067;49.470;10.394;2022-09-27T10:22:53;11.20;99.90
6078;DHT22;3067;49.470;10.394;2022-09-27T10:25:21;11.20;99.90
6078;DHT22;3067;49.470;10.394;2022-09-27T10:27:50;11.20;99.90
6078;DHT22;3067;49.470;10.394;2022-09-27T10:30:27;11.40;99.90
6078;DHT22;3067;49.470;10.394;2022-09-27T10:32:58;11.50;99.90
6078;DHT22;3067;49.470;10.394;2022-09-27T10:35:35;11.60;99.90
6078;DHT22;3067;49.470;10.394;2022-09-27T10:38:24;11.60;99.90
6078;DHT22;3067;49.470;10.394;2022-09-27T10:40:52;11.50;99.90
6078;DHT22;3067;49.470;10.394;2022-09-27T10:43:25;11.40;99.90
6078;DHT22;3067;49.470;10.394;2022-09-27T10:46:04;11.30;99.90
6078;DHT22;3067;49.470;10.394;2022-09-27T10:48:34;11.30;99.90
6078;DHT22;3067;49.470;10.394;2022-09-27T10:51:04;11.00;99.90
6078;DHT22;3067;49.470;10.394;2022-09-27T10:53:33;10.90;99.90
6078;DHT22;3067;49.470;10.394;2022-09-27T10:56:01;10.90;99.90
6078;DHT22;3067;49.470;10.394;2022-09-27T10:58:31;10.90;99.90
6078;DHT22;3067;49.470;10.394;2022-09-27T11:01:02;11.00;99.90
6078;DHT22;3067;49.470;10.394;2022-09-27T11:03:31;11.00;99.90
6078;DHT22;3067;49.470;10.394;2022-09-27T11:05:59;11.10;99.90
6078;DHT22;3067;49.470;10.394;2022-09-27T11:08:44;11.00;99.90
6078;DHT22;3067;49.470;10.394;2022-09-27T11:11:17;11.00;99.90
6078;DHT22;3067;49.470;10.394;2022-09-27T11:13:59;11.10;99.90
6078;DHT22;3067;49.470;10.394;2022-09-27T11:16:54;11.30;99.90
6078;DHT22;3067;49.470;10.394;2022-09-27T11:19:35;11.70;99.90
